createdAt,value
2017-11-29T00:00:36.236Z,5.03
2017-11-29T00:03:04.565Z,5.35
2017-11-29T00:05:32.162Z,6.00
2017-11-29T00:08:00.502Z,6.53
2017-11-29T00:10:28.096Z,5.30
2017-11-29T00:12:55.673Z,5.30
2017-11-29T00:15:24.033Z,6.00
2017-11-29T00:17:52.365Z,5.60
2017-11-29T00:20:19.961Z,5.40
2017-11-29T00:22:48.748Z,5.50
2017-11-29T00:25:16.374Z,5.47
2017-11-29T00:27:43.945Z,5.87
2017-11-29T00:30:11.554Z,6.00
2017-11-29T00:32:39.896Z,5.30
2017-11-29T00:35:07.461Z,4.97
2017-11-29T00:37:35.053Z,6.35
2017-11-29T00:40:02.625Z,5.87
2017-11-29T00:42:30.213Z,6.43
2017-11-29T00:44:57.841Z,6.27
2017-11-29T00:47:25.429Z,6.07
2017-11-29T00:49:53.002Z,5.85
2017-11-29T00:52:20.629Z,6.00
2017-11-29T00:54:50.093Z,7.10
2017-11-29T00:57:19.922Z,7.03
2017-11-29T00:59:49.464Z,6.63
2017-11-29T01:02:20.316Z,6.33
2017-11-29T01:04:50.940Z,7.87
2017-11-29T01:07:20.194Z,6.13
2017-11-29T01:09:50.602Z,6.68
2017-11-29T01:12:21.553Z,6.40
2017-11-29T01:14:49.130Z,7.77
2017-11-29T01:17:16.721Z,7.47
2017-11-29T01:19:46.018Z,7.53
2017-11-29T01:22:14.345Z,7.17
2017-11-29T01:24:41.917Z,7.60
2017-11-29T01:27:09.517Z,7.97
2017-11-29T01:29:37.857Z,9.20
2017-11-29T01:32:05.445Z,8.48
2017-11-29T01:34:33.017Z,9.00
2017-11-29T01:37:01.377Z,8.70
2017-11-29T01:39:29.048Z,8.37
2017-11-29T01:41:56.810Z,8.10
2017-11-29T01:44:24.372Z,8.80
2017-11-29T01:46:51.938Z,8.02
2017-11-29T01:49:19.528Z,7.93
2017-11-29T01:51:48.653Z,6.90
2017-11-29T01:54:16.240Z,8.10
2017-11-29T01:56:43.811Z,9.17
2017-11-29T01:59:11.665Z,7.47
2017-11-29T02:01:39.230Z,9.00
2017-11-29T02:04:06.837Z,9.02
2017-11-29T02:06:34.409Z,9.47
2017-11-29T02:09:02.191Z,7.87
2017-11-29T02:11:30.057Z,7.10
2017-11-29T02:13:57.924Z,8.00
2017-11-29T02:16:25.792Z,8.60
2017-11-29T02:18:53.396Z,8.30
2017-11-29T02:21:21.028Z,7.28
2017-11-29T02:23:49.034Z,8.10
2017-11-29T02:26:16.689Z,7.30
2017-11-29T02:28:44.307Z,7.70
2017-11-29T02:31:11.877Z,8.50
2017-11-29T02:33:39.487Z,7.73
2017-11-29T02:36:07.825Z,8.07
2017-11-29T02:38:35.417Z,7.10
2017-11-29T02:41:14.849Z,9.50
2017-11-29T02:43:42.440Z,8.17
2017-11-29T02:46:10.770Z,6.93
2017-11-29T02:48:38.363Z,8.37
2017-11-29T02:51:06.738Z,8.30
2017-11-29T02:53:35.257Z,6.80
2017-11-29T02:56:02.826Z,7.90
2017-11-29T02:58:30.401Z,8.20
2017-11-29T03:00:57.993Z,7.87
2017-11-29T03:03:25.558Z,6.70
2017-11-29T03:05:53.917Z,7.73
2017-11-29T03:08:21.513Z,7.93
2017-11-29T03:10:49.877Z,8.23
2017-11-29T03:13:17.437Z,7.07
2017-11-29T03:15:45.949Z,7.60
2017-11-29T03:18:14.292Z,7.53
2017-11-29T03:20:41.876Z,8.93
2017-11-29T03:23:10.211Z,6.97
2017-11-29T03:25:37.797Z,5.87
2017-11-29T03:28:05.357Z,7.60
2017-11-29T03:30:32.964Z,7.60
2017-11-29T03:33:00.550Z,5.97
2017-11-29T03:35:28.117Z,7.87
2017-11-29T03:37:55.703Z,6.00
2017-11-29T03:40:23.266Z,5.83
2017-11-29T03:42:50.853Z,6.07
2017-11-29T03:45:19.181Z,4.70
2017-11-29T03:47:47.921Z,6.97
2017-11-29T03:50:15.481Z,6.53
2017-11-29T03:52:43.062Z,7.73
2017-11-29T03:55:10.638Z,7.35
2017-11-29T03:57:38.236Z,7.60
2017-11-29T04:00:05.797Z,7.10
2017-11-29T04:02:33.371Z,7.50
2017-11-29T04:05:01.734Z,8.25
2017-11-29T04:07:29.296Z,10.17
2017-11-29T04:09:56.890Z,7.70
2017-11-29T04:12:24.452Z,9.57
2017-11-29T04:14:52.037Z,8.40
2017-11-29T04:17:19.606Z,8.90
2017-11-29T04:19:48.869Z,7.55
2017-11-29T04:22:16.457Z,7.53
2017-11-29T04:24:44.042Z,8.20
2017-11-29T04:27:11.905Z,8.97
2017-11-29T04:29:39.498Z,7.70
2017-11-29T04:32:07.831Z,7.57
2017-11-29T04:34:35.713Z,8.17
2017-11-29T04:37:03.305Z,8.48
2017-11-29T04:39:31.965Z,7.97
2017-11-29T04:41:59.561Z,9.37
2017-11-29T04:44:27.922Z,9.00
2017-11-29T04:46:55.514Z,10.40
2017-11-29T04:49:23.144Z,10.50
2017-11-29T04:51:50.737Z,10.40
2017-11-29T04:54:18.301Z,10.27
2017-11-29T04:56:47.658Z,11.43
2017-11-29T04:59:15.233Z,10.00
2017-11-29T05:01:42.797Z,12.10
2017-11-29T05:04:10.389Z,9.70
2017-11-29T05:06:37.977Z,11.17
2017-11-29T05:09:05.577Z,10.48
2017-11-29T05:11:33.913Z,11.37
2017-11-29T05:14:01.514Z,10.67
2017-11-29T05:16:29.085Z,10.67
2017-11-29T05:18:57.441Z,11.57
2017-11-29T05:21:25.014Z,10.10
2017-11-29T05:23:52.616Z,10.52
2017-11-29T05:26:20.521Z,10.93
2017-11-29T05:28:49.732Z,11.45
2017-11-29T05:31:17.305Z,9.60
2017-11-29T05:33:44.913Z,9.80
2017-11-29T05:36:12.486Z,11.37
2017-11-29T05:38:40.089Z,11.03
2017-11-29T05:41:07.670Z,9.17
2017-11-29T05:43:36.031Z,10.20
2017-11-29T05:46:04.366Z,9.57
2017-11-29T05:48:32.178Z,9.95
2017-11-29T05:51:00.509Z,8.85
2017-11-29T05:53:28.070Z,10.10
2017-11-29T05:55:55.661Z,8.20
2017-11-29T05:58:23.223Z,9.80
2017-11-29T06:00:50.816Z,10.13
2017-11-29T06:03:19.150Z,7.37
2017-11-29T06:05:47.997Z,9.43
2017-11-29T06:08:15.561Z,11.03
2017-11-29T06:10:43.182Z,8.07
2017-11-29T06:13:10.750Z,10.20
2017-11-29T06:15:38.314Z,9.80
2017-11-29T06:18:06.685Z,9.20
2017-11-29T06:20:34.246Z,9.30
2017-11-29T06:23:01.833Z,9.32
2017-11-29T06:25:30.168Z,9.17
2017-11-29T06:27:57.752Z,8.60
2017-11-29T06:30:26.085Z,9.15
2017-11-29T06:32:53.672Z,7.90
2017-11-29T06:35:21.279Z,10.00
2017-11-29T06:37:49.720Z,9.03
2017-11-29T06:40:17.284Z,7.87
2017-11-29T06:42:44.851Z,8.40
2017-11-29T06:45:13.213Z,9.87
2017-11-29T06:47:40.818Z,11.48
2017-11-29T06:50:08.405Z,9.47
2017-11-29T06:52:35.970Z,9.20
2017-11-29T06:55:03.585Z,9.82
2017-11-29T06:57:31.913Z,8.73
2017-11-29T06:59:59.717Z,7.32
2017-11-29T07:02:27.285Z,8.80
2017-11-29T07:04:55.617Z,8.73
2017-11-29T07:07:23.210Z,8.50
2017-11-29T07:09:50.778Z,8.67
2017-11-29T07:12:18.364Z,7.40
2017-11-29T07:14:46.875Z,8.15
2017-11-29T07:17:14.474Z,9.00
2017-11-29T07:19:42.041Z,5.10
2017-11-29T07:22:09.641Z,8.07
2017-11-29T07:24:37.210Z,8.67
2017-11-29T07:27:04.803Z,8.00
2017-11-29T07:29:32.386Z,8.63
2017-11-29T07:31:59.949Z,6.40
2017-11-29T07:34:28.314Z,8.33
2017-11-29T07:36:55.881Z,8.93
2017-11-29T07:39:23.469Z,7.30
2017-11-29T07:41:51.805Z,8.73
2017-11-29T07:44:19.421Z,9.60
2017-11-29T07:46:47.977Z,8.53
2017-11-29T07:49:15.537Z,8.53
2017-11-29T07:51:43.896Z,8.00
2017-11-29T07:54:11.469Z,8.70
2017-11-29T07:56:39.041Z,5.87
2017-11-29T07:59:07.398Z,8.00
2017-11-29T08:01:34.961Z,6.07
2017-11-29T08:04:02.559Z,8.02
2017-11-29T08:06:30.129Z,4.70
2017-11-29T08:08:57.720Z,5.83
2017-11-29T08:11:25.296Z,7.70
2017-11-29T08:13:52.888Z,7.20
2017-11-29T08:16:21.222Z,7.00
2017-11-29T08:18:48.945Z,7.53
2017-11-29T08:21:17.317Z,7.23
2017-11-29T08:23:46.574Z,5.50
2017-11-29T08:26:14.145Z,5.50
2017-11-29T08:28:41.778Z,6.63
2017-11-29T08:31:09.346Z,6.50
2017-11-29T08:33:36.940Z,7.33
2017-11-29T08:36:04.506Z,6.37
2017-11-29T08:38:32.981Z,6.73
2017-11-29T08:41:00.545Z,8.67
2017-11-29T08:43:28.111Z,8.60
2017-11-29T08:45:56.766Z,8.15
2017-11-29T08:48:24.333Z,7.60
2017-11-29T08:50:51.927Z,8.30
2017-11-29T08:53:20.260Z,8.80
2017-11-29T08:55:48.809Z,9.27
2017-11-29T08:58:16.376Z,7.30
2017-11-29T09:00:43.979Z,9.83
2017-11-29T09:03:11.561Z,10.67
2017-11-29T09:05:39.181Z,9.63
2017-11-29T09:08:06.777Z,9.05
2017-11-29T09:10:34.364Z,7.03
2017-11-29T09:13:02.725Z,8.70
2017-11-29T09:15:31.084Z,9.83
2017-11-29T09:17:58.649Z,9.00
2017-11-29T09:20:26.505Z,10.60
2017-11-29T09:22:54.101Z,10.30
2017-11-29T09:25:22.643Z,7.77
2017-11-29T09:27:50.404Z,8.73
2017-11-29T09:30:18.246Z,7.30
2017-11-29T09:32:47.399Z,7.57
2017-11-29T09:35:14.973Z,9.43
2017-11-29T09:37:43.326Z,8.10
2017-11-29T09:40:10.890Z,8.53
2017-11-29T09:42:38.485Z,9.03
2017-11-29T09:45:07.462Z,8.30
2017-11-29T09:47:35.832Z,9.38
2017-11-29T09:50:03.401Z,8.88
2017-11-29T09:52:31.760Z,7.97
2017-11-29T09:55:00.120Z,8.98
2017-11-29T09:57:27.717Z,8.30
2017-11-29T09:59:55.293Z,8.30
2017-11-29T10:02:23.673Z,7.47
2017-11-29T10:04:52.001Z,8.30
2017-11-29T10:07:19.573Z,8.30
2017-11-29T10:09:49.708Z,8.60
2017-11-29T10:12:17.562Z,12.07
2017-11-29T10:14:46.161Z,9.97
2017-11-29T10:17:14.505Z,8.20
2017-11-29T10:19:42.118Z,8.63
2017-11-29T10:22:10.458Z,6.70
2017-11-29T10:24:38.295Z,5.80
2017-11-29T10:27:05.942Z,8.30
2017-11-29T10:29:33.509Z,6.60
2017-11-29T10:32:01.133Z,7.72
2017-11-29T10:34:28.731Z,6.00
2017-11-29T10:36:56.342Z,7.40
2017-11-29T10:39:23.918Z,7.17
2017-11-29T10:41:51.542Z,6.62
2017-11-29T10:44:19.174Z,6.78
2017-11-29T10:46:48.837Z,5.93
2017-11-29T10:49:16.403Z,8.23
2017-11-29T10:51:43.992Z,6.60
2017-11-29T10:54:12.338Z,6.53
2017-11-29T10:56:39.929Z,7.37
2017-11-29T10:59:08.274Z,5.90
2017-11-29T11:01:35.894Z,7.60
2017-11-29T11:04:03.460Z,5.83
2017-11-29T11:06:31.032Z,7.60
2017-11-29T11:08:58.621Z,7.20
2017-11-29T11:11:26.185Z,6.50
2017-11-29T11:13:55.297Z,6.90
2017-11-29T11:16:22.872Z,7.47
2017-11-29T11:18:51.260Z,6.80
2017-11-29T11:21:18.856Z,5.63
2017-11-29T11:23:47.857Z,6.33
2017-11-29T11:26:15.421Z,6.23
2017-11-29T11:28:43.013Z,6.10
2017-11-29T11:31:10.577Z,7.20
2017-11-29T11:33:39.154Z,7.43
2017-11-29T11:36:06.722Z,8.20
2017-11-29T11:38:35.052Z,9.30
2017-11-29T11:41:02.642Z,9.02
2017-11-29T11:43:30.272Z,10.17
2017-11-29T11:45:57.849Z,10.37
2017-11-29T11:48:25.450Z,10.40
2017-11-29T11:50:53.821Z,12.13
2017-11-29T11:53:21.385Z,18.13
2017-11-29T11:55:50.062Z,17.15
2017-11-29T11:58:17.628Z,31.90
2017-11-29T12:00:46.917Z,23.40
2017-11-29T12:03:14.485Z,19.37
2017-11-29T12:05:42.085Z,11.00
2017-11-29T12:08:09.653Z,11.60
2017-11-29T12:10:37.332Z,11.33
2017-11-29T12:13:04.894Z,9.20
2017-11-29T12:15:32.485Z,9.30
2017-11-29T12:18:00.058Z,7.80
2017-11-29T12:20:27.667Z,8.93
2017-11-29T12:22:55.261Z,8.05
2017-11-29T12:25:22.830Z,11.60
2017-11-29T12:27:50.418Z,7.30
2017-11-29T12:30:18.760Z,7.47
2017-11-29T12:32:47.905Z,5.40
2017-11-29T12:35:15.482Z,10.13
2017-11-29T12:37:43.090Z,15.87
2017-11-29T12:40:10.661Z,8.40
2017-11-29T12:42:38.261Z,8.80
2017-11-29T12:45:05.833Z,7.05
2017-11-29T12:47:37.841Z,7.30
2017-11-29T12:50:17.306Z,11.45
2017-11-29T12:52:46.785Z,6.37
2017-11-29T12:55:14.349Z,6.63
2017-11-29T12:57:42.685Z,6.40
2017-11-29T13:00:10.273Z,6.27
2017-11-29T13:02:37.837Z,6.13
2017-11-29T13:05:05.428Z,10.52
2017-11-29T13:07:33.757Z,7.60
2017-11-29T13:10:01.457Z,6.10
2017-11-29T13:12:29.117Z,6.07
2017-11-29T13:14:56.706Z,8.13
2017-11-29T13:17:24.269Z,9.73
2017-11-29T13:19:52.185Z,6.87
2017-11-29T13:22:19.748Z,6.20
2017-11-29T13:24:48.260Z,6.30
2017-11-29T13:27:16.592Z,6.63
2017-11-29T13:29:44.154Z,7.83
2017-11-29T13:32:11.753Z,11.37
2017-11-29T13:34:39.354Z,18.80
2017-11-29T13:37:06.954Z,10.63
2017-11-29T13:39:34.521Z,16.13
2017-11-29T13:42:02.887Z,9.60
2017-11-29T13:44:30.458Z,13.10
2017-11-29T13:46:58.133Z,8.77
2017-11-29T13:49:25.700Z,7.10
2017-11-29T13:51:54.493Z,8.97
2017-11-29T13:54:22.873Z,7.57
2017-11-29T13:56:51.206Z,7.40
2017-11-29T13:59:18.797Z,7.83
2017-11-29T14:01:47.861Z,7.75
2017-11-29T14:04:15.449Z,7.10
2017-11-29T14:06:43.021Z,7.70
2017-11-29T14:09:10.621Z,8.33
2017-11-29T14:11:38.182Z,8.50
2017-11-29T14:14:06.100Z,7.93
2017-11-29T14:16:33.660Z,7.30
2017-11-29T14:19:02.022Z,8.00
2017-11-29T14:21:29.613Z,8.10
2017-11-29T14:23:57.180Z,7.73
2017-11-29T14:26:25.540Z,7.90
2017-11-29T14:28:53.893Z,7.68
2017-11-29T14:31:21.489Z,8.07
2017-11-29T14:33:49.149Z,7.27
2017-11-29T14:36:16.737Z,7.57
2017-11-29T14:38:45.061Z,6.93
2017-11-29T14:41:12.651Z,6.70
2017-11-29T14:43:41.014Z,8.33
2017-11-29T14:46:08.609Z,8.43
2017-11-29T14:48:36.956Z,7.80
2017-11-29T14:51:04.516Z,9.97
2017-11-29T14:53:32.105Z,8.97
2017-11-29T14:56:00.437Z,7.72
2017-11-29T14:58:28.025Z,7.53
2017-11-29T15:00:55.605Z,7.97
2017-11-29T15:03:23.968Z,7.67
2017-11-29T15:05:51.642Z,8.07
2017-11-29T15:08:19.293Z,7.23
2017-11-29T15:10:48.761Z,8.45
2017-11-29T15:13:16.473Z,7.67
2017-11-29T15:15:44.037Z,8.10
2017-11-29T15:18:12.384Z,14.13
2017-11-29T15:20:40.793Z,13.73
2017-11-29T15:23:08.356Z,9.30
2017-11-29T15:25:36.727Z,7.80
2017-11-29T15:28:04.301Z,8.40
2017-11-29T15:30:32.653Z,7.40
2017-11-29T15:33:00.222Z,7.43
2017-11-29T15:35:28.605Z,8.30
2017-11-29T15:37:56.173Z,8.35
2017-11-29T15:40:23.741Z,7.43
2017-11-29T15:42:52.398Z,6.87
2017-11-29T15:45:19.965Z,7.70
2017-11-29T15:47:49.787Z,7.50
2017-11-29T15:50:18.142Z,7.93
2017-11-29T15:52:47.026Z,8.55
2017-11-29T15:55:14.601Z,9.77
2017-11-29T15:57:42.437Z,7.78
2017-11-29T16:00:10.010Z,7.90
2017-11-29T16:02:37.577Z,7.70
2017-11-29T16:05:05.270Z,8.32
2017-11-29T16:07:32.834Z,9.60
2017-11-29T16:10:01.205Z,9.13
2017-11-29T16:12:29.578Z,9.20
2017-11-29T16:14:57.168Z,9.23
2017-11-29T16:17:25.898Z,8.80
2017-11-29T16:19:53.494Z,9.57
2017-11-29T16:22:21.062Z,8.30
2017-11-29T16:24:49.732Z,7.97
2017-11-29T16:27:17.309Z,8.63
2017-11-29T16:29:46.605Z,9.32
2017-11-29T16:32:14.173Z,9.97
2017-11-29T16:34:41.781Z,9.80
2017-11-29T16:37:09.353Z,10.10
2017-11-29T16:39:36.921Z,9.10
2017-11-29T16:42:04.525Z,9.60
2017-11-29T16:44:32.857Z,9.87
2017-11-29T16:47:00.561Z,10.20
2017-11-29T16:49:28.135Z,8.37
2017-11-29T16:51:56.500Z,10.25
2017-11-29T16:54:24.067Z,9.27
2017-11-29T16:56:52.422Z,8.88
2017-11-29T16:59:19.984Z,8.10
2017-11-29T17:01:50.757Z,9.20
2017-11-29T17:04:19.090Z,9.77
2017-11-29T17:06:48.114Z,9.43
2017-11-29T17:09:16.469Z,9.77
2017-11-29T17:11:44.034Z,9.70
2017-11-29T17:14:11.634Z,9.93
2017-11-29T17:16:39.209Z,9.97
2017-11-29T17:19:06.809Z,10.13
2017-11-29T17:21:34.601Z,11.37
2017-11-29T17:24:02.937Z,9.50
2017-11-29T17:26:30.505Z,10.40
2017-11-29T17:28:58.100Z,10.60
2017-11-29T17:31:26.757Z,8.90
2017-11-29T17:33:54.377Z,10.60
2017-11-29T17:36:21.949Z,10.30
2017-11-29T17:38:49.540Z,9.37
2017-11-29T17:41:17.224Z,10.57
2017-11-29T17:43:44.788Z,10.75
2017-11-29T17:46:12.693Z,11.53
2017-11-29T17:48:40.261Z,10.73
2017-11-29T17:51:07.833Z,12.07
2017-11-29T17:53:35.421Z,10.87
2017-11-29T17:56:03.097Z,14.83
2017-11-29T17:58:30.690Z,14.90
2017-11-29T18:00:58.267Z,13.40
2017-11-29T18:03:26.090Z,14.20
2017-11-29T18:05:54.421Z,14.16
2017-11-29T18:08:21.989Z,14.00
2017-11-29T18:10:49.592Z,18.53
2017-11-29T18:13:17.980Z,15.83
2017-11-29T18:15:47.953Z,14.55
2017-11-29T18:18:15.526Z,14.53
2017-11-29T18:20:43.122Z,14.03
2017-11-29T18:23:11.466Z,13.73
2017-11-29T18:25:39.055Z,13.23
2017-11-29T18:28:07.384Z,13.27
2017-11-29T18:30:34.988Z,12.90
2017-11-29T18:33:02.568Z,14.45
2017-11-29T18:35:30.201Z,14.37
2017-11-29T18:37:57.786Z,12.73
2017-11-29T18:40:26.129Z,13.57
2017-11-29T18:42:53.814Z,15.38
2017-11-29T18:45:21.376Z,14.10
2017-11-29T18:47:49.737Z,14.13
2017-11-29T18:50:17.309Z,14.80
2017-11-29T18:52:44.893Z,14.83
2017-11-29T18:55:13.238Z,14.77
2017-11-29T18:57:42.349Z,15.80
2017-11-29T19:00:09.931Z,15.00
2017-11-29T19:02:38.283Z,14.33
2017-11-29T19:05:05.881Z,13.88
2017-11-29T19:07:33.450Z,15.70
2017-11-29T19:10:01.042Z,14.63
2017-11-29T19:12:28.617Z,17.10
2017-11-29T19:14:56.212Z,15.33
2017-11-29T19:17:24.543Z,17.27
2017-11-29T19:19:52.142Z,16.77
2017-11-29T19:22:19.747Z,14.80
2017-11-29T19:24:49.766Z,14.10
2017-11-29T19:27:17.342Z,13.40
2017-11-29T19:29:45.139Z,13.83
2017-11-29T19:32:12.720Z,13.17
2017-11-29T19:34:41.058Z,13.30
2017-11-29T19:37:08.672Z,15.30
2017-11-29T19:39:36.238Z,18.23
2017-11-29T19:42:03.829Z,14.68
2017-11-29T19:44:31.392Z,15.63
2017-11-29T19:46:59.805Z,16.20
2017-11-29T19:49:28.141Z,15.35
2017-11-29T19:51:55.737Z,15.53
2017-11-29T19:54:23.312Z,14.77
2017-11-29T19:56:51.657Z,14.43
2017-11-29T19:59:19.255Z,14.13
2017-11-29T20:01:48.920Z,14.65
2017-11-29T20:04:16.518Z,14.37
2017-11-29T20:06:44.088Z,14.10
2017-11-29T20:09:12.449Z,14.03
2017-11-29T20:11:40.013Z,14.13
2017-11-29T20:14:07.621Z,13.67
2017-11-29T20:16:35.186Z,14.10
2017-11-29T20:19:02.805Z,14.47
2017-11-29T20:21:31.660Z,14.17
2017-11-29T20:23:59.224Z,15.57
2017-11-29T20:26:26.857Z,15.40
2017-11-29T20:28:54.430Z,15.13
2017-11-29T20:31:22.053Z,13.20
2017-11-29T20:33:50.384Z,14.87
2017-11-29T20:36:18.013Z,14.17
2017-11-29T20:38:46.896Z,14.67
2017-11-29T20:41:14.503Z,14.20
2017-11-29T20:43:42.086Z,16.13
2017-11-29T20:46:09.693Z,12.90
2017-11-29T20:48:37.353Z,13.37
2017-11-29T20:51:05.695Z,14.73
2017-11-29T20:53:33.285Z,16.10
2017-11-29T20:56:00.854Z,15.65
2017-11-29T20:58:28.470Z,16.40
2017-11-29T21:00:56.049Z,16.93
2017-11-29T21:03:24.405Z,14.37
2017-11-29T21:05:52.074Z,15.38
2017-11-29T21:08:19.674Z,15.00
2017-11-29T21:10:50.361Z,14.87
2017-11-29T21:13:18.098Z,14.87
2017-11-29T21:15:47.918Z,13.90
2017-11-29T21:18:15.536Z,12.83
2017-11-29T21:20:44.173Z,13.27
2017-11-29T21:23:11.962Z,13.80
2017-11-29T21:25:39.534Z,12.90
2017-11-29T21:28:07.870Z,13.90
2017-11-29T21:30:35.477Z,12.63
2017-11-29T21:33:04.128Z,13.82
2017-11-29T21:35:31.725Z,10.83
2017-11-29T21:38:00.073Z,13.80
2017-11-29T21:40:27.670Z,14.40
2017-11-29T21:42:56.005Z,16.10
2017-11-29T21:45:23.605Z,19.50
2017-11-29T21:47:51.169Z,16.25
2017-11-29T21:50:19.627Z,14.20
2017-11-29T21:52:49.613Z,15.85
2017-11-29T21:55:17.216Z,17.07
2017-11-29T21:57:46.478Z,15.40
2017-11-29T22:00:14.053Z,17.80
2017-11-29T22:02:41.653Z,17.00
2017-11-29T22:05:09.989Z,19.10
2017-11-29T22:07:37.574Z,19.13
2017-11-29T22:10:05.235Z,18.53
2017-11-29T22:12:32.978Z,16.67
2017-11-29T22:15:00.554Z,19.17
2017-11-29T22:17:28.911Z,20.03
2017-11-29T22:19:56.509Z,18.77
2017-11-29T22:22:24.842Z,17.77
2017-11-29T22:24:52.434Z,20.10
2017-11-29T22:27:20.001Z,17.50
2017-11-29T22:29:49.572Z,20.33
2017-11-29T22:32:17.141Z,19.57
2017-11-29T22:34:44.729Z,18.90
2017-11-29T22:37:12.389Z,24.77
2017-11-29T22:39:40.237Z,26.10
2017-11-29T22:42:07.809Z,24.53
2017-11-29T22:44:35.413Z,25.00
2017-11-29T22:47:02.995Z,23.48
2017-11-29T22:49:30.909Z,18.57
2017-11-29T22:51:58.489Z,18.83
2017-11-29T22:54:26.820Z,21.90
2017-11-29T22:56:54.418Z,22.03
2017-11-29T22:59:22.759Z,31.47
2017-11-29T23:01:50.389Z,37.77
2017-11-29T23:04:18.005Z,35.33
2017-11-29T23:06:48.417Z,32.13
2017-11-29T23:09:15.994Z,32.00
2017-11-29T23:11:44.331Z,37.40
2017-11-29T23:14:11.921Z,39.90
2017-11-29T23:16:39.705Z,32.60
2017-11-29T23:19:07.277Z,28.43
2017-11-29T23:21:35.615Z,25.40
2017-11-29T23:24:03.226Z,26.10
2017-11-29T23:26:31.566Z,19.87
2017-11-29T23:28:59.166Z,34.37
2017-11-29T23:31:27.500Z,34.17
2017-11-29T23:33:55.093Z,32.60
2017-11-29T23:36:23.434Z,33.17
2017-11-29T23:38:51.034Z,33.10
2017-11-29T23:41:19.373Z,30.20
2017-11-29T23:43:48.821Z,28.80
2017-11-29T23:46:17.158Z,26.00
2017-11-29T23:48:44.730Z,27.63
2017-11-29T23:51:12.325Z,28.50
2017-11-29T23:53:41.096Z,23.87
2017-11-29T23:56:08.661Z,20.90
2017-11-29T23:58:36.238Z,24.07
